sensor_id;sensor_type;location;lat;lon;timestamp;temperature;humidity
25170;DHT22;13129;48.012;10.352;2023-05-09T03:32:20;9.70;99.90
25170;DHT22;13129;48.012;10.352;2023-05-09T03:34:46;9.70;99.90
25170;DHT22;13129;48.012;10.352;2023-05-09T03:37:12;9.80;99.90
25170;DHT22;13129;48.012;10.352;2023-05-09T03:39:37;9.70;99.90
25170;DHT22;13129;48.012;10.352;2023-05-09T03:42:03;9.80;99.90
25170;DHT22;13129;48.012;10.352;2023-05-09T03:44:29;9.90;99.90
25170;DHT22;13129;48.012;10.352;2023-05-09T03:46:54;9.90;99.90
25170;DHT22;13129;48.012;10.352;2023-05-09T03:49:20;9.90;99.90
25170;DHT22;13129;48.012;10.352;2023-05-09T03:51:46;10.00;99.90
25170;DHT22;13129;48.012;10.352;2023-05-09T03:54:11;10.00;99.90
25170;DHT22;13129;48.012;10.352;2023-05-09T03:56:37;10.10;99.90
25170;DHT22;13129;48.012;10.352;2023-05-09T03:59:02;10.10;99.90
25170;DHT22;13129;48.012;10.352;2023-05-09T04:01:28;10.20;99.90
25170;DHT22;13129;48.012;10.352;2023-05-09T04:03:55;10.20;99.90
25170;DHT22;13129;48.012;10.352;2023-05-09T04:06:22;10.30;99.90
25170;DHT22;13129;48.012;10.352;2023-05-09T04:08:48;10.30;99.90
25170;DHT22;13129;48.012;10.352;2023-05-09T04:11:13;10.40;99.90
25170;DHT22;13129;48.012;10.352;2023-05-09T04:13:39;10.40;99.90
25170;DHT22;13129;48.012;10.352;2023-05-09T04:16:05;10.40;99.90
25170;DHT22;13129;48.012;10.352;2023-05-09T04:18:31;10.50;99.90
25170;DHT22;13129;48.012;10.352;2023-05-09T04:20:56;10.50;99.90
25170;DHT22;13129;48.012;10.352;2023-05-09T04:23:22;10.60;99.90
25170;DHT22;13129;48.012;10.352;2023-05-09T04:25:48;10.60;99.90
25170;DHT22;13129;48.012;10.352;2023-05-09T04:28:16;10.60;99.90
25170;DHT22;13129;48.012;10.352;2023-05-09T04:30:42;10.70;99.90
25170;DHT22;13129;48.012;10.352;2023-05-09T04:33:07;10.80;99.90
25170;DHT22;13129;48.012;10.352;2023-05-09T04:35:33;10.80;99.90
25170;DHT22;13129;48.012;10.352;2023-05-09T04:37:58;10.90;99.90
25170;DHT22;13129;48.012;10.352;2023-05-09T04:40:24;11.00;99.90
25170;DHT22;13129;48.012;10.352;2023-05-09T04:42:50;11.10;99.90
25170;DHT22;13129;48.012;10.352;2023-05-09T04:45:16;11.20;99.90
25170;DHT22;13129;48.012;10.352;2023-05-09T04:47:42;11.20;99.90
25170;DHT22;13129;48.012;10.352;2023-05-09T04:50:08;11.30;99.90
25170;DHT22;13129;48.012;10.352;2023-05-09T04:52:33;11.30;99.90
25170;DHT22;13129;48.012;10.352;2023-05-09T04:54:59;11.30;99.90
25170;DHT22;13129;48.012;10.352;2023-05-09T04:57:25;11.30;99.90
25170;DHT22;13129;48.012;10.352;2023-05-09T04:59:51;11.30;99.90
25170;DHT22;13129;48.012;10.352;2023-05-09T05:02:17;11.20;99.90
25170;DHT22;13129;48.012;10.352;2023-05-09T05:04:43;11.20;99.90
25170;DHT22;13129;48.012;10.352;2023-05-09T05:07:08;11.20;99.90
25170;DHT22;13129;48.012;10.352;2023-05-09T05:09:34;11.10;99.90
25170;DHT22;13129;48.012;10.352;2023-05-09T05:12:00;11.20;99.90
25170;DHT22;13129;48.012;10.352;2023-05-09T05:14:25;11.20;99.90
25170;DHT22;13129;48.012;10.352;2023-05-09T05:16:51;11.30;99.90
25170;DHT22;13129;48.012;10.352;2023-05-09T05:19:16;11.30;99.90
25170;DHT22;13129;48.012;10.352;2023-05-09T05:21:42;11.40;99.90
25170;DHT22;13129;48.012;10.352;2023-05-09T05:24:08;11.40;99.90
25170;DHT22;13129;48.012;10.352;2023-05-09T05:26:33;11.40;99.90
25170;DHT22;13129;48.012;10.352;2023-05-09T05:28:59;11.50;99.90
25170;DHT22;13129;48.012;10.352;2023-05-09T05:31:25;11.60;99.90
25170;DHT22;13129;48.012;10.352;2023-05-09T05:33:50;11.60;99.90
25170;DHT22;13129;48.012;10.352;2023-05-09T05:36:16;11.90;99.90
25170;DHT22;13129;48.012;10.352;2023-05-09T05:38:42;12.30;99.90
25170;DHT22;13129;48.012;10.352;2023-05-09T05:41:07;12.50;99.90
25170;DHT22;13129;48.012;10.352;2023-05-09T05:43:35;12.60;99.90
25170;DHT22;13129;48.012;10.352;2023-05-09T05:46:01;12.50;99.90
25170;DHT22;13129;48.012;10.352;2023-05-09T05:48:27;12.50;99.90
25170;DHT22;13129;48.012;10.352;2023-05-09T05:50:53;12.60;99.90
25170;DHT22;13129;48.012;10.352;2023-05-09T05:53:19;12.80;99.90
25170;DHT22;13129;48.012;10.352;2023-05-09T05:55:44;13.20;99.90
25170;DHT22;13129;48.012;10.352;2023-05-09T05:58:11;13.40;99.90
25170;DHT22;13129;48.012;10.352;2023-05-09T06:00:37;13.50;99.90
25170;DHT22;13129;48.012;10.352;2023-05-09T06:03:02;13.50;99.90
25170;DHT22;13129;48.012;10.352;2023-05-09T06:05:28;13.50;99.90
25170;DHT22;13129;48.012;10.352;2023-05-09T06:07:54;13.70;99.90
25170;DHT22;13129;48.012;10.352;2023-05-09T06:10:19;13.80;99.90
25170;DHT22;13129;48.012;10.352;2023-05-09T06:12:45;13.90;99.90
25170;DHT22;13129;48.012;10.352;2023-05-09T06:15:11;13.90;99.90
25170;DHT22;13129;48.012;10.352;2023-05-09T06:17:36;13.80;99.90
25170;DHT22;13129;48.012;10.352;2023-05-09T06:20:02;13.80;99.90
25170;DHT22;13129;48.012;10.352;2023-05-09T06:22:28;13.90;99.90
25170;DHT22;13129;48.012;10.352;2023-05-09T06:24:54;13.90;99.90
25170;DHT22;13129;48.012;10.352;2023-05-09T06:27:19;13.90;99.90
25170;DHT22;13129;48.012;10.352;2023-05-09T06:29:45;14.00;99.90
25170;DHT22;13129;48.012;10.352;2023-05-09T06:32:10;14.20;99.90
25170;DHT22;13129;48.012;10.352;2023-05-09T06:34:36;14.30;99.90
25170;DHT22;13129;48.012;10.352;2023-05-09T06:37:02;14.30;99.90
25170;DHT22;13129;48.012;10.352;2023-05-09T06:39:28;14.40;99.90
25170;DHT22;13129;48.012;10.352;2023-05-09T06:41:53;14.50;99.90
25170;DHT22;13129;48.012;10.352;2023-05-09T06:44:19;14.60;99.90
25170;DHT22;13129;48.012;10.352;2023-05-09T06:46:44;14.90;99.90
25170;DHT22;13129;48.012;10.352;2023-05-09T06:49:10;15.40;99.90
25170;DHT22;13129;48.012;10.352;2023-05-09T06:51:38;15.80;99.90
25170;DHT22;13129;48.012;10.352;2023-05-09T06:54:03;16.10;99.90
25170;DHT22;13129;48.012;10.352;2023-05-09T06:56:29;16.30;99.90
25170;DHT22;13129;48.012;10.352;2023-05-09T06:58:55;16.70;99.90
25170;DHT22;13129;48.012;10.352;2023-05-09T07:01:21;17.20;99.90
25170;DHT22;13129;48.012;10.352;2023-05-09T07:03:47;17.60;99.90
25170;DHT22;13129;48.012;10.352;2023-05-09T07:06:12;18.10;99.90
25170;DHT22;13129;48.012;10.352;2023-05-09T07:08:38;18.20;99.90
25170;DHT22;13129;48.012;10.352;2023-05-09T07:11:04;18.00;99.90
25170;DHT22;13129;48.012;10.352;2023-05-09T07:13:30;18.10;99.90
25170;DHT22;13129;48.012;10.352;2023-05-09T07:15:56;18.00;99.90
25170;DHT22;13129;48.012;10.352;2023-05-09T07:18:22;18.00;99.90
25170;DHT22;13129;48.012;10.352;2023-05-09T07:20:47;18.80;99.90
25170;DHT22;13129;48.012;10.352;2023-05-09T07:23:13;19.50;99.90
25170;DHT22;13129;48.012;10.352;2023-05-09T07:25:39;19.60;99.90
25170;DHT22;13129;48.012;10.352;2023-05-09T07:28:04;19.90;99.90
25170;DHT22;13129;48.012;10.352;2023-05-09T07:30:30;20.10;99.90
25170;DHT22;13129;48.012;10.352;2023-05-09T07:32:56;20.50;99.90
25170;DHT22;13129;48.012;10.352;2023-05-09T07:35:21;21.00;99.90
25170;DHT22;13129;48.012;10.352;2023-05-09T07:37:47;20.90;99.90
25170;DHT22;13129;48.012;10.352;2023-05-09T07:40:13;21.10;99.90
25170;DHT22;13129;48.012;10.352;2023-05-09T07:42:39;20.70;99.90
25170;DHT22;13129;48.012;10.352;2023-05-09T07:45:05;20.20;99.90
25170;DHT22;13129;48.012;10.352;2023-05-09T07:47:31;19.60;99.90
25170;DHT22;13129;48.012;10.352;2023-05-09T07:49:57;19.30;99.90
25170;DHT22;13129;48.012;10.352;2023-05-09T07:52:23;18.90;99.90
25170;DHT22;13129;48.012;10.352;2023-05-09T07:54:48;18.50;99.90
25170;DHT22;13129;48.012;10.352;2023-05-09T07:57:14;18.30;99.90
25170;DHT22;13129;48.012;10.352;2023-05-09T07:59:40;18.00;99.90
25170;DHT22;13129;48.012;10.352;2023-05-09T08:02:07;17.70;99.90
25170;DHT22;13129;48.012;10.352;2023-05-09T08:04:33;17.40;99.90
25170;DHT22;13129;48.012;10.352;2023-05-09T08:07:02;17.30;99.90
25170;DHT22;13129;48.012;10.352;2023-05-09T08:09:28;17.20;99.90
25170;DHT22;13129;48.012;10.352;2023-05-09T08:11:54;17.30;99.90
25170;DHT22;13129;48.012;10.352;2023-05-09T08:14:20;18.60;99.90
25170;DHT22;13129;48.012;10.352;2023-05-09T08:16:45;20.80;99.90
25170;DHT22;13129;48.012;10.352;2023-05-09T08:19:11;23.50;99.90
25170;DHT22;13129;48.012;10.352;2023-05-09T08:21:37;25.30;99.90
25170;DHT22;13129;48.012;10.352;2023-05-09T08:24:02;25.70;99.90
25170;DHT22;13129;48.012;10.352;2023-05-09T08:26:28;26.30;99.90
25170;DHT22;13129;48.012;10.352;2023-05-09T08:28:54;26.40;99.90
25170;DHT22;13129;48.012;10.352;2023-05-09T08:31:19;25.60;99.90
25170;DHT22;13129;48.012;10.352;2023-05-09T08:33:45;24.30;99.90
25170;DHT22;13129;48.012;10.352;2023-05-09T08:36:11;23.20;99.90
25170;DHT22;13129;48.012;10.352;2023-05-09T08:38:36;22.30;99.90
25170;DHT22;13129;48.012;10.352;2023-05-09T08:41:04;21.70;99.90
25170;DHT22;13129;48.012;10.352;2023-05-09T08:43:32;21.10;99.90
25170;DHT22;13129;48.012;10.352;2023-05-09T08:45:58;20.70;99.90
25170;DHT22;13129;48.012;10.352;2023-05-09T08:48:25;20.50;99.90
25170;DHT22;13129;48.012;10.352;2023-05-09T08:50:54;20.30;99.90
25170;DHT22;13129;48.012;10.352;2023-05-09T08:53:21;20.30;99.90
25170;DHT22;13129;48.012;10.352;2023-05-09T08:55:48;20.90;99.90
25170;DHT22;13129;48.012;10.352;2023-05-09T08:58:14;21.30;99.90
25170;DHT22;13129;48.012;10.352;2023-05-09T09:00:41;21.40;99.90
25170;DHT22;13129;48.012;10.352;2023-05-09T09:03:07;21.40;99.90
25170;DHT22;13129;48.012;10.352;2023-05-09T09:05:36;21.90;99.90
25170;DHT22;13129;48.012;10.352;2023-05-09T09:08:03;24.20;99.90
25170;DHT22;13129;48.012;10.352;2023-05-09T09:10:32;25.70;99.90
25170;DHT22;13129;48.012;10.352;2023-05-09T09:13:03;25.90;99.90
25170;DHT22;13129;48.012;10.352;2023-05-09T09:15:35;25.10;99.90
25170;DHT22;13129;48.012;10.352;2023-05-09T09:18:08;24.70;99.90
25170;DHT22;13129;48.012;10.352;2023-05-09T09:20:53;24.50;99.90
25170;DHT22;13129;48.012;10.352;2023-05-09T09:23:23;23.80;99.90
25170;DHT22;13129;48.012;10.352;2023-05-09T09:25:56;23.30;99.90
25170;DHT22;13129;48.012;10.352;2023-05-09T09:28:22;22.70;99.90
25170;DHT22;13129;48.012;10.352;2023-05-09T09:30:47;22.40;99.90
25170;DHT22;13129;48.012;10.352;2023-05-09T09:33:20;22.00;99.90
25170;DHT22;13129;48.012;10.352;2023-05-09T09:35:47;21.70;99.90
25170;DHT22;13129;48.012;10.352;2023-05-09T09:38:14;21.40;99.90
25170;DHT22;13129;48.012;10.352;2023-05-09T09:40:39;21.80;99.90
25170;DHT22;13129;48.012;10.352;2023-05-09T09:43:12;21.90;99.90
25170;DHT22;13129;48.012;10.352;2023-05-09T09:45:40;21.80;99.90
25170;DHT22;13129;48.012;10.352;2023-05-09T09:48:06;21.90;99.90
25170;DHT22;13129;48.012;10.352;2023-05-09T09:50:32;21.80;99.90
25170;DHT22;13129;48.012;10.352;2023-05-09T09:52:57;21.80;99.90
25170;DHT22;13129;48.012;10.352;2023-05-09T09:55:25;22.10;99.90
25170;DHT22;13129;48.012;10.352;2023-05-09T09:57:51;23.70;99.90
25170;DHT22;13129;48.012;10.352;2023-05-09T10:00:18;25.00;99.90
25170;DHT22;13129;48.012;10.352;2023-05-09T10:02:54;27.30;98.30
25170;DHT22;13129;48.012;10.352;2023-05-09T10:05:25;29.40;94.60
25170;DHT22;13129;48.012;10.352;2023-05-09T10:08:02;30.80;92.00
25170;DHT22;13129;48.012;10.352;2023-05-09T10:10:30;31.50;84.10
25170;DHT22;13129;48.012;10.352;2023-05-09T10:12:57;31.10;83.20
25170;DHT22;13129;48.012;10.352;2023-05-09T10:15:24;31.30;78.20
25170;DHT22;13129;48.012;10.352;2023-05-09T10:17:53;30.70;77.20
25170;DHT22;13129;48.012;10.352;2023-05-09T10:20:21;30.40;77.10
25170;DHT22;13129;48.012;10.352;2023-05-09T10:22:47;29.60;75.50
25170;DHT22;13129;48.012;10.352;2023-05-09T10:25:19;29.50;75.50
25170;DHT22;13129;48.012;10.352;2023-05-09T10:27:47;28.40;74.90
25170;DHT22;13129;48.012;10.352;2023-05-09T10:32:52;26.40;81.50
25170;DHT22;13129;48.012;10.352;2023-05-09T10:35:29;26.00;82.50
25170;DHT22;13129;48.012;10.352;2023-05-09T10:37:56;24.90;84.30
25170;DHT22;13129;48.012;10.352;2023-05-09T10:40:22;24.30;85.20
25170;DHT22;13129;48.012;10.352;2023-05-09T10:42:48;23.80;86.60
25170;DHT22;13129;48.012;10.352;2023-05-09T10:45:14;24.40;89.70
25170;DHT22;13129;48.012;10.352;2023-05-09T10:47:42;24.80;88.70
25170;DHT22;13129;48.012;10.352;2023-05-09T10:50:09;24.70;89.10
25170;DHT22;13129;48.012;10.352;2023-05-09T10:55:55;23.40;89.70
25170;DHT22;13129;48.012;10.352;2023-05-09T10:58:30;22.20;91.60
25170;DHT22;13129;48.012;10.352;2023-05-09T11:01:02;21.50;93.00
25170;DHT22;13129;48.012;10.352;2023-05-09T11:03:55;21.10;93.70
25170;DHT22;13129;48.012;10.352;2023-05-09T11:06:50;21.00;94.10
25170;DHT22;13129;48.012;10.352;2023-05-09T11:11:57;20.90;94.70
25170;DHT22;13129;48.012;10.352;2023-05-09T11:14:47;21.50;94.60
25170;DHT22;13129;48.012;10.352;2023-05-09T11:22:44;21.30;94.60
25170;DHT22;13129;48.012;10.352;2023-05-09T11:25:04;21.20;94.70
25170;DHT22;13129;48.012;10.352;2023-05-09T11:27:45;21.00;95.10
25170;DHT22;13129;48.012;10.352;2023-05-09T11:30:13;20.90;95.40
25170;DHT22;13129;48.012;10.352;2023-05-09T11:32:45;20.80;95.50
25170;DHT22;13129;48.012;10.352;2023-05-09T11:35:15;20.80;95.40
25170;DHT22;13129;48.012;10.352;2023-05-09T11:37:51;20.70;95.70
25170;DHT22;13129;48.012;10.352;2023-05-09T11:40:21;21.00;96.20
25170;DHT22;13129;48.012;10.352;2023-05-09T11:42:51;21.30;96.10
25170;DHT22;13129;48.012;10.352;2023-05-09T11:45:18;21.90;96.30
25170;DHT22;13129;48.012;10.352;2023-05-09T11:47:46;22.20;94.90
25170;DHT22;13129;48.012;10.352;2023-05-09T11:50:13;22.50;95.10
25170;DHT22;13129;48.012;10.352;2023-05-09T11:52:39;22.70;94.40
25170;DHT22;13129;48.012;10.352;2023-05-09T11:55:08;22.70;93.80
25170;DHT22;13129;48.012;10.352;2023-05-09T11:57:35;23.00;94.10
25170;DHT22;13129;48.012;10.352;2023-05-09T12:00:04;23.50;94.10
25170;DHT22;13129;48.012;10.352;2023-05-09T12:02:30;23.90;93.90
25170;DHT22;13129;48.012;10.352;2023-05-09T12:05:12;24.00;94.70
25170;DHT22;13129;48.012;10.352;2023-05-09T12:07:38;23.80;95.00
25170;DHT22;13129;48.012;10.352;2023-05-09T12:10:09;23.90;94.60
25170;DHT22;13129;48.012;10.352;2023-05-09T12:12:36;23.40;94.70
25170;DHT22;13129;48.012;10.352;2023-05-09T12:15:07;23.00;95.00
25170;DHT22;13129;48.012;10.352;2023-05-09T12:17:34;23.20;95.90
25170;DHT22;13129;48.012;10.352;2023-05-09T12:19:59;23.30;95.90
25170;DHT22;13129;48.012;10.352;2023-05-09T12:22:26;23.50;96.10
25170;DHT22;13129;48.012;10.352;2023-05-09T12:24:52;23.80;95.70
25170;DHT22;13129;48.012;10.352;2023-05-09T12:27:19;23.90;95.90
25170;DHT22;13129;48.012;10.352;2023-05-09T12:29:45;24.00;95.20
25170;DHT22;13129;48.012;10.352;2023-05-09T12:32:15;24.00;93.90
25170;DHT22;13129;48.012;10.352;2023-05-09T12:34:41;24.10;94.20
25170;DHT22;13129;48.012;10.352;2023-05-09T12:37:17;24.20;93.80
25170;DHT22;13129;48.012;10.352;2023-05-09T12:40:08;24.30;92.70
25170;DHT22;13129;48.012;10.352;2023-05-09T12:42:37;24.00;92.00
25170;DHT22;13129;48.012;10.352;2023-05-09T12:45:06;24.00;93.10
25170;DHT22;13129;48.012;10.352;2023-05-09T12:47:32;24.10;93.20
25170;DHT22;13129;48.012;10.352;2023-05-09T12:50:01;23.90;92.30
25170;DHT22;13129;48.012;10.352;2023-05-09T12:52:39;23.90;91.60
25170;DHT22;13129;48.012;10.352;2023-05-09T12:55:10;23.70;91.10
25170;DHT22;13129;48.012;10.352;2023-05-09T12:57:37;23.80;91.30
25170;DHT22;13129;48.012;10.352;2023-05-09T13:00:05;24.00;90.90
25170;DHT22;13129;48.012;10.352;2023-05-09T13:02:41;23.80;90.70
25170;DHT22;13129;48.012;10.352;2023-05-09T13:05:10;23.50;90.60
25170;DHT22;13129;48.012;10.352;2023-05-09T13:07:48;23.20;91.00
25170;DHT22;13129;48.012;10.352;2023-05-09T13:10:24;23.30;92.10
25170;DHT22;13129;48.012;10.352;2023-05-09T13:12:52;23.20;91.70
25170;DHT22;13129;48.012;10.352;2023-05-09T13:15:21;23.20;91.90
25170;DHT22;13129;48.012;10.352;2023-05-09T13:17:48;23.00;91.90
25170;DHT22;13129;48.012;10.352;2023-05-09T13:20:15;22.80;91.60
25170;DHT22;13129;48.012;10.352;2023-05-09T13:22:41;22.80;91.70
25170;DHT22;13129;48.012;10.352;2023-05-09T13:25:09;22.50;91.40
25170;DHT22;13129;48.012;10.352;2023-05-09T13:27:35;22.20;91.90
25170;DHT22;13129;48.012;10.352;2023-05-09T13:30:02;21.90;91.90
25170;DHT22;13129;48.012;10.352;2023-05-09T13:32:28;21.80;92.10
25170;DHT22;13129;48.012;10.352;2023-05-09T13:34:54;21.70;93.00
25170;DHT22;13129;48.012;10.352;2023-05-09T13:37:20;21.80;93.40
25170;DHT22;13129;48.012;10.352;2023-05-09T13:39:46;21.90;93.70
25170;DHT22;13129;48.012;10.352;2023-05-09T13:42:12;22.00;93.10
25170;DHT22;13129;48.012;10.352;2023-05-09T13:44:38;22.20;93.30
25170;DHT22;13129;48.012;10.352;2023-05-09T13:47:04;22.40;93.80
25170;DHT22;13129;48.012;10.352;2023-05-09T13:49:32;22.50;93.10
25170;DHT22;13129;48.012;10.352;2023-05-09T13:51:58;22.50;92.80
25170;DHT22;13129;48.012;10.352;2023-05-09T13:54:24;22.40;92.30
25170;DHT22;13129;48.012;10.352;2023-05-09T13:56:49;22.10;92.00
25170;DHT22;13129;48.012;10.352;2023-05-09T13:59:15;22.10;92.40
25170;DHT22;13129;48.012;10.352;2023-05-09T14:01:41;22.10;92.60
25170;DHT22;13129;48.012;10.352;2023-05-09T14:04:07;21.90;92.00
25170;DHT22;13129;48.012;10.352;2023-05-09T14:06:33;22.00;92.60
25170;DHT22;13129;48.012;10.352;2023-05-09T14:08:58;22.00;93.40
25170;DHT22;13129;48.012;10.352;2023-05-09T14:11:24;22.00;93.60
25170;DHT22;13129;48.012;10.352;2023-05-09T14:13:51;21.70;92.50
25170;DHT22;13129;48.012;10.352;2023-05-09T14:16:20;21.50;92.70
25170;DHT22;13129;48.012;10.352;2023-05-09T14:18:46;21.40;93.10
25170;DHT22;13129;48.012;10.352;2023-05-09T14:21:13;21.30;93.20
25170;DHT22;13129;48.012;10.352;2023-05-09T14:23:40;21.20;93.70
25170;DHT22;13129;48.012;10.352;2023-05-09T14:26:05;21.30;94.70
25170;DHT22;13129;48.012;10.352;2023-05-09T14:28:31;21.40;94.10
25170;DHT22;13129;48.012;10.352;2023-05-09T14:30:57;21.40;93.60
25170;DHT22;13129;48.012;10.352;2023-05-09T14:33:22;21.20;93.30
25170;DHT22;13129;48.012;10.352;2023-05-09T14:35:48;21.10;93.80
25170;DHT22;13129;48.012;10.352;2023-05-09T14:38:14;21.00;94.10
25170;DHT22;13129;48.012;10.352;2023-05-09T14:40:40;20.90;94.30
25170;DHT22;13129;48.012;10.352;2023-05-09T14:43:05;20.70;94.20
25170;DHT22;13129;48.012;10.352;2023-05-09T14:45:32;20.60;94.40
25170;DHT22;13129;48.012;10.352;2023-05-09T14:48:00;20.70;94.60
25170;DHT22;13129;48.012;10.352;2023-05-09T14:50:29;20.70;94.60
25170;DHT22;13129;48.012;10.352;2023-05-09T14:52:55;20.80;95.00
25170;DHT22;13129;48.012;10.352;2023-05-09T14:55:20;20.90;95.30
25170;DHT22;13129;48.012;10.352;2023-05-09T14:57:50;21.10;95.30
25170;DHT22;13129;48.012;10.352;2023-05-09T15:00:16;21.10;94.70
25170;DHT22;13129;48.012;10.352;2023-05-09T15:02:42;21.00;94.00
25170;DHT22;13129;48.012;10.352;2023-05-09T15:05:08;20.90;93.90
25170;DHT22;13129;48.012;10.352;2023-05-09T15:07:34;20.90;93.80
25170;DHT22;13129;48.012;10.352;2023-05-09T15:10:01;20.80;93.80
25170;DHT22;13129;48.012;10.352;2023-05-09T15:12:30;20.90;94.10
25170;DHT22;13129;48.012;10.352;2023-05-09T15:15:22;21.00;94.60
25170;DHT22;13129;48.012;10.352;2023-05-09T15:17:48;21.10;95.00
25170;DHT22;13129;48.012;10.352;2023-05-09T15:20:15;21.00;95.30
25170;DHT22;13129;48.012;10.352;2023-05-09T15:22:42;21.00;94.90
25170;DHT22;13129;48.012;10.352;2023-05-09T15:25:08;21.00;94.40
25170;DHT22;13129;48.012;10.352;2023-05-09T15:27:34;21.10;94.10
25170;DHT22;13129;48.012;10.352;2023-05-09T15:30:01;21.10;94.30
25170;DHT22;13129;48.012;10.352;2023-05-09T15:32:27;21.10;94.90
25170;DHT22;13129;48.012;10.352;2023-05-09T15:34:53;21.20;94.90
25170;DHT22;13129;48.012;10.352;2023-05-09T15:37:18;21.30;95.00
25170;DHT22;13129;48.012;10.352;2023-05-09T15:39:44;21.30;94.80
25170;DHT22;13129;48.012;10.352;2023-05-09T15:42:11;21.30;94.50
25170;DHT22;13129;48.012;10.352;2023-05-09T15:44:38;21.30;94.50
25170;DHT22;13129;48.012;10.352;2023-05-09T15:47:04;21.20;94.30
25170;DHT22;13129;48.012;10.352;2023-05-09T15:49:30;21.20;94.50
25170;DHT22;13129;48.012;10.352;2023-05-09T15:51:56;21.20;94.70
25170;DHT22;13129;48.012;10.352;2023-05-09T15:54:22;21.00;94.90
25170;DHT22;13129;48.012;10.352;2023-05-09T15:56:53;20.90;94.70
25170;DHT22;13129;48.012;10.352;2023-05-09T15:59:20;20.70;94.60
25170;DHT22;13129;48.012;10.352;2023-05-09T16:01:46;20.60;94.60
25170;DHT22;13129;48.012;10.352;2023-05-09T16:04:12;20.50;94.60
25170;DHT22;13129;48.012;10.352;2023-05-09T16:06:38;20.40;94.90
25170;DHT22;13129;48.012;10.352;2023-05-09T16:09:05;20.40;95.30
25170;DHT22;13129;48.012;10.352;2023-05-09T16:11:31;20.40;95.80
25170;DHT22;13129;48.012;10.352;2023-05-09T16:13:57;20.30;95.90
25170;DHT22;13129;48.012;10.352;2023-05-09T16:16:24;20.30;96.20
25170;DHT22;13129;48.012;10.352;2023-05-09T16:18:49;20.30;96.70
25170;DHT22;13129;48.012;10.352;2023-05-09T16:21:17;20.30;96.80
25170;DHT22;13129;48.012;10.352;2023-05-09T16:23:43;20.30;96.80
25170;DHT22;13129;48.012;10.352;2023-05-09T16:26:08;20.20;96.80
25170;DHT22;13129;48.012;10.352;2023-05-09T16:28:34;20.20;97.00
25170;DHT22;13129;48.012;10.352;2023-05-09T16:31:00;20.00;97.30
25170;DHT22;13129;48.012;10.352;2023-05-09T16:33:31;20.00;97.50
25170;DHT22;13129;48.012;10.352;2023-05-09T16:35:57;20.00;97.80
25170;DHT22;13129;48.012;10.352;2023-05-09T16:38:23;19.90;97.80
25170;DHT22;13129;48.012;10.352;2023-05-09T16:40:49;19.90;97.90
25170;DHT22;13129;48.012;10.352;2023-05-09T16:43:15;19.90;98.20
25170;DHT22;13129;48.012;10.352;2023-05-09T16:45:41;19.80;98.50
25170;DHT22;13129;48.012;10.352;2023-05-09T16:48:07;19.70;98.90
25170;DHT22;13129;48.012;10.352;2023-05-09T16:50:33;19.70;99.10
25170;DHT22;13129;48.012;10.352;2023-05-09T16:52:58;19.70;99.10
25170;DHT22;13129;48.012;10.352;2023-05-09T16:55:24;19.60;99.30
25170;DHT22;13129;48.012;10.352;2023-05-09T16:57:50;19.40;99.20
25170;DHT22;13129;48.012;10.352;2023-05-09T17:00:16;19.40;99.40
25170;DHT22;13129;48.012;10.352;2023-05-09T17:02:42;19.30;99.40
25170;DHT22;13129;48.012;10.352;2023-05-09T17:05:08;19.20;99.70
25170;DHT22;13129;48.012;10.352;2023-05-09T17:07:33;19.00;99.90
25170;DHT22;13129;48.012;10.352;2023-05-09T17:10:02;18.90;99.90
25170;DHT22;13129;48.012;10.352;2023-05-09T17:12:28;18.80;99.90
25170;DHT22;13129;48.012;10.352;2023-05-09T17:14:54;18.70;99.90
25170;DHT22;13129;48.012;10.352;2023-05-09T17:17:20;18.60;99.90
25170;DHT22;13129;48.012;10.352;2023-05-09T17:19:45;18.60;99.90
25170;DHT22;13129;48.012;10.352;2023-05-09T17:22:11;18.50;99.90
25170;DHT22;13129;48.012;10.352;2023-05-09T17:24:37;18.40;99.90
25170;DHT22;13129;48.012;10.352;2023-05-09T17:27:03;18.40;99.90
25170;DHT22;13129;48.012;10.352;2023-05-09T17:29:29;18.40;99.90
25170;DHT22;13129;48.012;10.352;2023-05-09T17:31:56;18.30;99.90
25170;DHT22;13129;48.012;10.352;2023-05-09T17:34:22;18.20;99.90
25170;DHT22;13129;48.012;10.352;2023-05-09T17:36:48;18.20;99.90
25170;DHT22;13129;48.012;10.352;2023-05-09T17:39:14;18.10;99.90
25170;DHT22;13129;48.012;10.352;2023-05-09T17:41:41;18.00;99.90
25170;DHT22;13129;48.012;10.352;2023-05-09T17:44:26;17.90;99.90
25170;DHT22;13129;48.012;10.352;2023-05-09T17:48:01;17.80;99.90
